createdAt,value
2018-03-19T00:00:41.508Z,1011.8
2018-03-19T00:01:43.917Z,1011.8
2018-03-19T00:02:46.623Z,1011.8
2018-03-19T00:03:49.044Z,1011.8
2018-03-19T00:04:51.464Z,1011.8
2018-03-19T00:05:53.882Z,1011.8
2018-03-19T00:06:56.294Z,1011.8
2018-03-19T00:07:59.020Z,1011.8
2018-03-19T00:09:01.463Z,1011.8
2018-03-19T00:10:03.875Z,1011.8
2018-03-19T00:11:06.297Z,1011.8
2018-03-19T00:12:08.717Z,1011.7
2018-03-19T00:13:11.409Z,1011.8
2018-03-19T00:14:13.844Z,1011.7
2018-03-19T00:15:16.553Z,1011.7
2018-03-19T00:16:19.252Z,1011.8
2018-03-19T00:17:21.980Z,1011.8
2018-03-19T00:18:24.400Z,1011.7
2018-03-19T00:19:26.825Z,1011.7
2018-03-19T00:20:29.535Z,1011.7
2018-03-19T00:21:31.938Z,1011.8
2018-03-19T00:22:34.651Z,1011.7
2018-03-19T00:23:37.078Z,1011.7
2018-03-19T00:24:39.487Z,1011.7
2018-03-19T00:25:41.923Z,1011.7
2018-03-19T00:26:44.326Z,1011.8
2018-03-19T00:27:46.750Z,1011.7
2018-03-19T00:28:49.164Z,1011.8
2018-03-19T00:29:51.903Z,1011.7
2018-03-19T00:30:54.319Z,1011.7
2018-03-19T00:31:57.029Z,1011.8
2018-03-19T00:32:59.443Z,1011.8
2018-03-19T00:34:01.867Z,1011.7
2018-03-19T00:35:04.561Z,1011.7
2018-03-19T00:36:06.982Z,1011.7
2018-03-19T00:37:09.397Z,1011.7
2018-03-19T00:38:12.112Z,1011.7
2018-03-19T00:39:14.850Z,1011.7
2018-03-19T00:40:17.322Z,1011.7
2018-03-19T00:41:19.969Z,1011.7
2018-03-19T00:42:22.701Z,1011.6
2018-03-19T00:43:25.702Z,1011.7
2018-03-19T00:44:28.131Z,1011.7
2018-03-19T00:45:30.548Z,1011.6
2018-03-19T00:46:32.973Z,1011.6
2018-03-19T00:47:35.374Z,1011.6
2018-03-19T00:48:38.096Z,1011.6
2018-03-19T00:49:40.510Z,1011.6
2018-03-19T00:50:42.925Z,1011.6
2018-03-19T00:51:45.343Z,1011.6
2018-03-19T00:52:47.767Z,1011.6
2018-03-19T00:53:50.179Z,1011.6
2018-03-19T00:54:52.904Z,1011.6
2018-03-19T00:55:55.322Z,1011.6
2018-03-19T00:56:58.025Z,1011.6
2018-03-19T00:58:01.035Z,1011.5
2018-03-19T00:59:03.453Z,1011.5
2018-03-19T01:00:05.870Z,1011.5
2018-03-19T01:01:08.574Z,1011.5
2018-03-19T01:02:11.291Z,1011.5
2018-03-19T01:03:13.699Z,1011.5
2018-03-19T01:04:16.173Z,1011.5
2018-03-19T01:05:18.539Z,1011.5
2018-03-19T01:06:20.953Z,1011.5
2018-03-19T01:07:23.370Z,1011.5
2018-03-19T01:08:26.107Z,1011.5
2018-03-19T01:09:28.522Z,1011.5
2018-03-19T01:10:30.942Z,1011.5
2018-03-19T01:11:33.357Z,1011.5
2018-03-19T01:12:35.774Z,1011.5
2018-03-19T01:13:38.196Z,1011.4
2018-03-19T01:14:40.617Z,1011.5
2018-03-19T01:15:43.332Z,1011.5
2018-03-19T01:16:45.752Z,1011.5
2018-03-19T01:17:48.456Z,1011.5
2018-03-19T01:18:50.887Z,1011.5
2018-03-19T01:19:53.308Z,1011.5
2018-03-19T01:20:56.307Z,1011.4
2018-03-19T01:21:58.714Z,1011.5
2018-03-19T01:23:01.138Z,1011.5
2018-03-19T01:24:03.562Z,1011.5
2018-03-19T01:25:06.263Z,1011.5
2018-03-19T01:26:08.680Z,1011.5
2018-03-19T01:27:11.677Z,1011.5
2018-03-19T01:28:14.379Z,1011.5
2018-03-19T01:29:16.800Z,1011.4
2018-03-19T01:30:19.520Z,1011.5
2018-03-19T01:31:21.940Z,1011.5
2018-03-19T01:32:24.346Z,1011.4
2018-03-19T01:33:27.050Z,1011.5
2018-03-19T01:34:29.760Z,1011.5
2018-03-19T01:35:32.459Z,1011.5
2018-03-19T01:36:34.870Z,1011.5
2018-03-19T01:37:37.290Z,1011.5
2018-03-19T01:38:39.703Z,1011.4
2018-03-19T01:39:42.139Z,1011.5
2018-03-19T01:40:44.549Z,1011.5
2018-03-19T01:41:46.966Z,1011.4
2018-03-19T01:42:49.387Z,1011.5
2018-03-19T01:43:51.869Z,1011.4
2018-03-19T01:44:54.223Z,1011.4
2018-03-19T01:45:56.955Z,1011.4
2018-03-19T01:46:59.353Z,1011.4
2018-03-19T01:48:01.771Z,1011.4
2018-03-19T01:49:04.185Z,1011.4
2018-03-19T01:50:06.606Z,1011.3
2018-03-19T01:51:09.023Z,1011.3
2018-03-19T01:52:11.440Z,1011.3
2018-03-19T01:53:14.148Z,1011.3
2018-03-19T01:54:16.576Z,1011.3
2018-03-19T01:55:19.000Z,1011.3
2018-03-19T01:56:21.469Z,1011.2
2018-03-19T01:57:24.184Z,1011.3
2018-03-19T01:58:26.603Z,1011.2
2018-03-19T01:59:29.307Z,1011.2
2018-03-19T02:00:31.715Z,1011.2
2018-03-19T02:01:34.139Z,1011.2
2018-03-19T02:02:36.828Z,1011.2
2018-03-19T02:03:39.261Z,1011.2
2018-03-19T02:04:41.672Z,1011.2
2018-03-19T02:05:44.091Z,1011.2
2018-03-19T02:06:46.512Z,1011.2
2018-03-19T02:07:48.921Z,1011.2
2018-03-19T02:08:51.334Z,1011.1
2018-03-19T02:09:54.056Z,1011.2
2018-03-19T02:10:56.472Z,1011.2
2018-03-19T02:11:59.193Z,1011.2
2018-03-19T02:13:01.613Z,1011.2
2018-03-19T02:14:04.039Z,1011.2
2018-03-19T02:15:06.736Z,1011.2
2018-03-19T02:16:09.445Z,1011.2
2018-03-19T02:17:12.432Z,1011.2
2018-03-19T02:18:14.849Z,1011.2
2018-03-19T02:19:17.264Z,1011.2
2018-03-19T02:20:19.688Z,1011.2
2018-03-19T02:21:22.101Z,1011.2
2018-03-19T02:22:24.841Z,1011.2
2018-03-19T02:23:27.258Z,1011.2
2018-03-19T02:24:29.668Z,1011.2
2018-03-19T02:25:32.081Z,1011.2
2018-03-19T02:26:34.502Z,1011.2
2018-03-19T02:27:36.915Z,1011.2
2018-03-19T02:28:39.606Z,1011.3
2018-03-19T02:29:42.030Z,1011.2
2018-03-19T02:30:44.447Z,1011.2
2018-03-19T02:31:46.864Z,1011.2
2018-03-19T02:32:49.284Z,1011.2
2018-03-19T02:33:51.699Z,1011.2
2018-03-19T02:34:54.121Z,1011.2
2018-03-19T02:35:56.562Z,1011.2
2018-03-19T02:36:58.961Z,1011.2
2018-03-19T02:38:01.674Z,1011.2
2018-03-19T02:39:04.430Z,1011.2
2018-03-19T02:40:06.846Z,1011.3
2018-03-19T02:41:09.264Z,1011.2
2018-03-19T02:42:11.958Z,1011.2
2018-03-19T02:43:14.674Z,1011.2
2018-03-19T02:44:17.382Z,1011.2
2018-03-19T02:45:19.809Z,1011.3
2018-03-19T02:46:22.209Z,1011.2
2018-03-19T02:47:24.636Z,1011.2
2018-03-19T02:48:27.053Z,1011.2
2018-03-19T02:49:29.766Z,1011.2
2018-03-19T02:50:32.180Z,1011.2
2018-03-19T02:51:34.590Z,1011.2
2018-03-19T02:52:37.001Z,1011.2
2018-03-19T02:53:39.422Z,1011.2
2018-03-19T02:54:41.835Z,1011.2
2018-03-19T02:55:44.248Z,1011.2
2018-03-19T02:56:46.668Z,1011.2
2018-03-19T02:57:49.673Z,1011.2
2018-03-19T02:58:52.083Z,1011.1
2018-03-19T02:59:54.503Z,1011.2
2018-03-19T03:00:56.923Z,1011.1
2018-03-19T03:01:59.336Z,1011.1
2018-03-19T03:03:01.754Z,1011.1
2018-03-19T03:04:04.163Z,1011.2
2018-03-19T03:05:06.873Z,1011.1
2018-03-19T03:06:09.282Z,1011.2
2018-03-19T03:07:11.983Z,1011.2
2018-03-19T03:08:14.692Z,1011.2
2018-03-19T03:09:17.104Z,1011.1
2018-03-19T03:10:19.517Z,1011.1
2018-03-19T03:11:21.925Z,1011.1
2018-03-19T03:12:24.355Z,1011
2018-03-19T03:13:27.053Z,1011.1
2018-03-19T03:14:29.471Z,1011.1
2018-03-19T03:15:31.887Z,1011.1
2018-03-19T03:16:34.597Z,1011.1
2018-03-19T03:17:37.013Z,1011.1
2018-03-19T03:18:39.426Z,1011.1
2018-03-19T03:19:41.832Z,1011.1
2018-03-19T03:20:44.240Z,1011.1
2018-03-19T03:21:46.936Z,1011
2018-03-19T03:22:49.344Z,1011.1
2018-03-19T03:23:51.757Z,1011.1
2018-03-19T03:24:54.184Z,1011.1
2018-03-19T03:25:56.597Z,1011.1
2018-03-19T03:26:59.003Z,1011.1
2018-03-19T03:28:01.426Z,1011.1
2018-03-19T03:29:03.838Z,1011
2018-03-19T03:30:06.252Z,1011.1
2018-03-19T03:31:08.668Z,1011.1
2018-03-19T03:32:11.074Z,1011
2018-03-19T03:33:13.488Z,1011
2018-03-19T03:34:15.921Z,1011
2018-03-19T03:35:18.333Z,1011
2018-03-19T03:36:20.744Z,1011
2018-03-19T03:37:23.461Z,1011
2018-03-19T03:38:25.874Z,1011
2018-03-19T03:39:28.587Z,1011
2018-03-19T03:40:30.997Z,1011
2018-03-19T03:41:33.416Z,1011
2018-03-19T03:42:35.827Z,1010.9
2018-03-19T03:43:38.249Z,1011
2018-03-19T03:44:40.678Z,1011
2018-03-19T03:45:43.074Z,1011
2018-03-19T03:46:45.499Z,1011
2018-03-19T03:47:48.201Z,1011
2018-03-19T03:48:50.918Z,1011
2018-03-19T03:49:53.327Z,1011
2018-03-19T03:50:55.743Z,1011
2018-03-19T03:51:58.155Z,1011
2018-03-19T03:53:00.579Z,1011
2018-03-19T03:54:02.993Z,1011
2018-03-19T03:55:05.406Z,1011
2018-03-19T03:56:07.823Z,1011
2018-03-19T03:57:10.238Z,1011
2018-03-19T03:58:12.947Z,1011
2018-03-19T03:59:15.367Z,1011
2018-03-19T04:00:18.062Z,1011
2018-03-19T04:01:20.481Z,1011
2018-03-19T04:02:22.897Z,1011
2018-03-19T04:03:25.317Z,1011
2018-03-19T04:04:27.736Z,1011
2018-03-19T04:05:30.156Z,1011
2018-03-19T04:06:33.175Z,1011
2018-03-19T04:07:35.604Z,1011
2018-03-19T04:08:38.022Z,1011
2018-03-19T04:09:40.433Z,1011
2018-03-19T04:10:42.854Z,1011
2018-03-19T04:11:45.548Z,1011
2018-03-19T04:12:48.256Z,1011
2018-03-19T04:13:50.674Z,1011
2018-03-19T04:14:53.086Z,1011
2018-03-19T04:15:55.504Z,1011
2018-03-19T04:16:57.912Z,1011
2018-03-19T04:18:00.615Z,1011
2018-03-19T04:19:03.338Z,1011
2018-03-19T04:20:05.757Z,1011
2018-03-19T04:21:08.460Z,1011
2018-03-19T04:22:10.877Z,1011
2018-03-19T04:23:13.299Z,1010.9
2018-03-19T04:24:15.729Z,1011
2018-03-19T04:25:18.124Z,1010.9
2018-03-19T04:26:20.547Z,1011
2018-03-19T04:27:22.956Z,1010.9
2018-03-19T04:28:25.666Z,1011
2018-03-19T04:29:28.084Z,1011
2018-03-19T04:30:30.496Z,1010.9
2018-03-19T04:31:33.503Z,1010.9
2018-03-19T04:32:36.208Z,1010.9
2018-03-19T04:33:38.687Z,1010.9
2018-03-19T04:34:41.045Z,1010.9
2018-03-19T04:35:43.755Z,1010.9
2018-03-19T04:36:46.170Z,1010.9
2018-03-19T04:37:48.904Z,1010.9
2018-03-19T04:38:51.605Z,1010.9
2018-03-19T04:39:54.026Z,1010.9
2018-03-19T04:40:56.444Z,1010.9
2018-03-19T04:41:58.866Z,1010.9
2018-03-19T04:43:01.328Z,1010.9
2018-03-19T04:44:04.641Z,1010.9
2018-03-19T04:45:07.066Z,1010.9
2018-03-19T04:46:09.483Z,1010.9
2018-03-19T04:47:11.892Z,1011
2018-03-19T04:48:14.313Z,1010.9
2018-03-19T04:49:16.729Z,1010.9
2018-03-19T04:50:19.155Z,1010.9
2018-03-19T04:51:21.636Z,1010.9
2018-03-19T04:52:24.002Z,1010.9
2018-03-19T04:53:26.426Z,1010.9
2018-03-19T04:54:28.833Z,1010.9
2018-03-19T04:55:31.245Z,1010.9
2018-03-19T04:56:33.658Z,1010.9
2018-03-19T04:57:36.078Z,1010.9
2018-03-19T04:58:38.500Z,1010.9
2018-03-19T04:59:41.189Z,1010.9
2018-03-19T05:00:43.896Z,1010.9
2018-03-19T05:01:46.312Z,1010.9
2018-03-19T05:02:49.042Z,1010.9
2018-03-19T05:03:51.753Z,1011
2018-03-19T05:04:54.162Z,1011
2018-03-19T05:05:56.570Z,1010.9
2018-03-19T05:06:59.285Z,1010.9
2018-03-19T05:08:01.690Z,1010.9
2018-03-19T05:09:04.124Z,1010.9
2018-03-19T05:10:06.816Z,1010.9
2018-03-19T05:11:09.273Z,1010.9
2018-03-19T05:12:11.640Z,1011
2018-03-19T05:13:14.052Z,1011
2018-03-19T05:14:16.751Z,1010.9
2018-03-19T05:15:19.465Z,1010.9
2018-03-19T05:16:21.865Z,1011
2018-03-19T05:17:24.284Z,1010.9
2018-03-19T05:18:26.710Z,1011
2018-03-19T05:19:29.123Z,1011
2018-03-19T05:20:31.545Z,1011
2018-03-19T05:21:33.965Z,1011
2018-03-19T05:22:36.391Z,1011
2018-03-19T05:23:38.787Z,1011
2018-03-19T05:24:41.200Z,1011
2018-03-19T05:25:43.617Z,1011
2018-03-19T05:26:46.027Z,1011
2018-03-19T05:27:48.455Z,1011
2018-03-19T05:28:50.868Z,1011.1
2018-03-19T05:29:53.286Z,1011
2018-03-19T05:30:55.712Z,1011
2018-03-19T05:31:58.445Z,1011.1
2018-03-19T05:33:00.857Z,1011.1
2018-03-19T05:34:03.272Z,1011.1
2018-03-19T05:35:05.964Z,1011.1
2018-03-19T05:36:08.383Z,1011.1
2018-03-19T05:37:10.799Z,1011.2
2018-03-19T05:38:13.777Z,1011.1
2018-03-19T05:39:16.187Z,1011.2
2018-03-19T05:40:18.613Z,1011.2
2018-03-19T05:41:21.030Z,1011.2
2018-03-19T05:42:23.437Z,1011.2
2018-03-19T05:43:25.861Z,1011.2
2018-03-19T05:44:28.282Z,1011.2
2018-03-19T05:45:30.697Z,1011.2
2018-03-19T05:46:33.111Z,1011.2
2018-03-19T05:47:35.529Z,1011.2
2018-03-19T05:48:38.224Z,1011.2
2018-03-19T05:49:40.945Z,1011.2
2018-03-19T05:50:43.351Z,1011.1
2018-03-19T05:51:45.764Z,1011.2
2018-03-19T05:52:48.175Z,1011.2
2018-03-19T05:53:50.600Z,1011.1
2018-03-19T05:54:53.291Z,1011.1
2018-03-19T05:55:55.762Z,1011.2
2018-03-19T05:57:00.345Z,1011.2
2018-03-19T05:58:02.756Z,1011.1
2018-03-19T05:59:05.167Z,1011.1
2018-03-19T06:00:07.863Z,1011.1
2018-03-19T06:01:10.574Z,1011.1
2018-03-19T06:02:12.991Z,1011.2
2018-03-19T06:03:15.412Z,1011.2
2018-03-19T06:04:17.812Z,1011.2
2018-03-19T06:05:20.236Z,1011.2
2018-03-19T06:06:22.661Z,1011.1
2018-03-19T06:07:25.077Z,1011.1
2018-03-19T06:08:27.495Z,1011.1
2018-03-19T06:09:29.912Z,1011.2
2018-03-19T06:10:32.333Z,1011.2
2018-03-19T06:11:34.749Z,1011.2
2018-03-19T06:12:37.166Z,1011.2
2018-03-19T06:13:39.874Z,1011.2
2018-03-19T06:14:42.293Z,1011.1
2018-03-19T06:15:44.708Z,1011.2
2018-03-19T06:16:47.127Z,1011.2
2018-03-19T06:17:49.551Z,1011.2
2018-03-19T06:18:51.961Z,1011.2
2018-03-19T06:19:54.381Z,1011.2
2018-03-19T06:20:56.816Z,1011.2
2018-03-19T06:21:59.233Z,1011.1
2018-03-19T06:23:01.644Z,1011.1
2018-03-19T06:24:04.348Z,1011.2
2018-03-19T06:25:06.763Z,1011.1
2018-03-19T06:26:09.183Z,1011.1
2018-03-19T06:27:11.590Z,1011.1
2018-03-19T06:28:14.018Z,1011.1
2018-03-19T06:29:16.415Z,1011.1
2018-03-19T06:30:18.845Z,1011.2
2018-03-19T06:31:21.547Z,1011.1
2018-03-19T06:32:24.162Z,1011.1
2018-03-19T06:33:27.438Z,1011.1
2018-03-19T06:34:29.851Z,1011.1
2018-03-19T06:35:32.265Z,1011.1
2018-03-19T06:36:34.683Z,1011.1
2018-03-19T06:37:37.094Z,1011.1
2018-03-19T06:38:39.508Z,1011.2
2018-03-19T06:39:42.220Z,1011.2
2018-03-19T06:40:44.640Z,1011.2
2018-03-19T06:41:47.048Z,1011.2
2018-03-19T06:42:49.472Z,1011.2
2018-03-19T06:43:52.470Z,1011.2
2018-03-19T06:44:54.896Z,1011.2
2018-03-19T06:45:57.312Z,1011.2
2018-03-19T06:46:59.736Z,1011.2
2018-03-19T06:48:02.149Z,1011.2
2018-03-19T06:49:04.856Z,1011.2
2018-03-19T06:50:07.559Z,1011.2
2018-03-19T06:51:09.969Z,1011.2
2018-03-19T06:52:12.387Z,1011.2
2018-03-19T06:53:15.105Z,1011.3
2018-03-19T06:54:17.802Z,1011.3
2018-03-19T06:55:20.226Z,1011.3
2018-03-19T06:56:22.638Z,1011.3
2018-03-19T06:57:25.348Z,1011.3
2018-03-19T06:58:27.770Z,1011.2
2018-03-19T06:59:30.189Z,1011.2
2018-03-19T07:00:32.611Z,1011.3
2018-03-19T07:01:35.035Z,1011.2
2018-03-19T07:02:37.731Z,1011.2
2018-03-19T07:03:40.140Z,1011.2
2018-03-19T07:04:42.553Z,1011.2
2018-03-19T07:05:44.965Z,1011.2
2018-03-19T07:06:47.673Z,1011.2
2018-03-19T07:07:50.091Z,1011.1
2018-03-19T07:08:52.522Z,1011.2
2018-03-19T07:09:54.937Z,1011.2
2018-03-19T07:10:57.356Z,1011.2
2018-03-19T07:11:59.779Z,1011.3
2018-03-19T07:13:02.466Z,1011.2
2018-03-19T07:14:05.207Z,1011.3
2018-03-19T07:15:07.621Z,1011.3
2018-03-19T07:16:10.037Z,1011.3
2018-03-19T07:17:12.501Z,1011.2
2018-03-19T07:18:15.202Z,1011.2
2018-03-19T07:19:17.904Z,1011.3
2018-03-19T07:20:20.324Z,1011.2
2018-03-19T07:21:22.738Z,1011.3
2018-03-19T07:22:25.439Z,1011.3
2018-03-19T07:23:27.857Z,1011.3
2018-03-19T07:24:30.273Z,1011.3
2018-03-19T07:25:32.693Z,1011.3
2018-03-19T07:26:35.410Z,1011.3
2018-03-19T07:27:37.827Z,1011.3
2018-03-19T07:28:40.263Z,1011.3
2018-03-19T07:29:42.673Z,1011.3
2018-03-19T07:30:45.088Z,1011.2
2018-03-19T07:31:47.511Z,1011.2
2018-03-19T07:32:49.930Z,1011.2
2018-03-19T07:33:52.364Z,1011.2
2018-03-19T07:34:54.769Z,1011.2
2018-03-19T07:35:57.187Z,1011.2
2018-03-19T07:36:59.597Z,1011.2
2018-03-19T07:38:02.013Z,1011.2
2018-03-19T07:39:04.446Z,1011.2
2018-03-19T07:40:06.868Z,1011.2
2018-03-19T07:41:09.571Z,1011.2
2018-03-19T07:42:11.992Z,1011.2
2018-03-19T07:43:14.424Z,1011.2
2018-03-19T07:44:16.841Z,1011.2
2018-03-19T07:45:19.268Z,1011.2
2018-03-19T07:46:22.240Z,1011.1
2018-03-19T07:47:24.657Z,1011.1
2018-03-19T07:48:27.091Z,1011.1
2018-03-19T07:49:29.512Z,1011.1
2018-03-19T07:50:31.933Z,1011.1
2018-03-19T07:51:34.353Z,1011.1
2018-03-19T07:52:37.356Z,1011.1
2018-03-19T07:53:39.782Z,1011.1
2018-03-19T07:54:42.214Z,1011.1
2018-03-19T07:55:44.632Z,1011.1
2018-03-19T07:56:47.063Z,1011.1
2018-03-19T07:57:49.476Z,1011.1
2018-03-19T07:58:52.184Z,1011.1
2018-03-19T07:59:54.607Z,1011.1
2018-03-19T08:00:57.032Z,1011.1
2018-03-19T08:01:59.437Z,1011.2
2018-03-19T08:03:01.870Z,1011.1
2018-03-19T08:04:04.573Z,1011.1
2018-03-19T08:05:06.992Z,1011.1
2018-03-19T08:06:09.420Z,1011.2
2018-03-19T08:07:11.841Z,1011.2
2018-03-19T08:08:14.275Z,1011.1
2018-03-19T08:09:16.988Z,1011.1
2018-03-19T08:10:19.430Z,1011.1
2018-03-19T08:11:21.855Z,1011.1
2018-03-19T08:12:24.288Z,1011.2
2018-03-19T08:13:26.700Z,1011.1
2018-03-19T08:14:29.124Z,1011
2018-03-19T08:15:31.550Z,1011.1
2018-03-19T08:16:33.970Z,1011.1
2018-03-19T08:17:36.390Z,1011.1
2018-03-19T08:18:38.865Z,1011.1
2018-03-19T08:19:41.560Z,1011.1
2018-03-19T08:20:43.992Z,1011
2018-03-19T08:21:47.301Z,1011.1
2018-03-19T08:22:49.728Z,1011
2018-03-19T08:23:52.445Z,1011.1
2018-03-19T08:24:54.875Z,1011.1
2018-03-19T08:25:57.609Z,1011
2018-03-19T08:26:59.998Z,1011
2018-03-19T08:28:02.439Z,1011.1
2018-03-19T08:29:04.894Z,1011
2018-03-19T08:30:07.766Z,1011
2018-03-19T08:31:10.926Z,1011
2018-03-19T08:32:13.355Z,1011
2018-03-19T08:33:15.784Z,1011
2018-03-19T08:34:18.225Z,1011
2018-03-19T08:35:20.655Z,1011
2018-03-19T08:36:23.447Z,1011
2018-03-19T08:37:25.948Z,1011
2018-03-19T08:38:31.000Z,1011
2018-03-19T08:39:43.570Z,1010.9
2018-03-19T08:40:46.482Z,1010.9
2018-03-19T08:41:50.857Z,1010.9
2018-03-19T08:42:53.514Z,1010.9
2018-03-19T08:43:58.130Z,1010.9
2018-03-19T08:45:01.984Z,1010.9
2018-03-19T08:46:04.848Z,1010.8
2018-03-19T08:47:08.806Z,1010.9
2018-03-19T08:48:13.031Z,1010.9
2018-03-19T08:49:16.430Z,1010.9
2018-03-19T08:50:19.453Z,1010.9
2018-03-19T08:51:23.078Z,1010.9
2018-03-19T08:52:26.589Z,1010.8
2018-03-19T08:53:29.036Z,1010.8
2018-03-19T08:54:31.464Z,1010.8
2018-03-19T08:55:33.906Z,1010.8
2018-03-19T08:56:36.341Z,1010.8
2018-03-19T08:57:39.058Z,1010.8
2018-03-19T08:58:41.509Z,1010.7
2018-03-19T08:59:44.242Z,1010.8
2018-03-19T09:00:46.669Z,1010.7
2018-03-19T09:01:49.118Z,1010.7
2018-03-19T09:02:51.565Z,1010.7
2018-03-19T09:03:54.004Z,1010.7
2018-03-19T09:04:56.436Z,1010.7
2018-03-19T09:05:58.871Z,1010.8
2018-03-19T09:07:01.317Z,1010.7
2018-03-19T09:08:03.766Z,1010.8
2018-03-19T09:09:06.202Z,1010.7
2018-03-19T09:10:08.684Z,1010.7
2018-03-19T09:11:11.069Z,1010.7
2018-03-19T09:12:13.507Z,1010.7
2018-03-19T09:13:15.944Z,1010.7
2018-03-19T09:14:18.378Z,1010.7
2018-03-19T09:15:20.820Z,1010.7
2018-03-19T09:16:23.260Z,1010.7
2018-03-19T09:17:25.714Z,1010.7
2018-03-19T09:18:28.156Z,1010.7
2018-03-19T09:19:30.602Z,1010.7
2018-03-19T09:20:33.042Z,1010.7
2018-03-19T09:21:35.478Z,1010.6
2018-03-19T09:22:37.916Z,1010.6
2018-03-19T09:23:40.945Z,1010.6
2018-03-19T09:24:43.385Z,1010.6
2018-03-19T09:25:45.832Z,1010.5
2018-03-19T09:26:48.263Z,1010.6
2018-03-19T09:27:50.996Z,1010.6
2018-03-19T09:28:53.436Z,1010.5
2018-03-19T09:29:56.459Z,1010.5
2018-03-19T09:30:58.905Z,1010.5
2018-03-19T09:32:01.338Z,1010.5
2018-03-19T09:33:03.798Z,1010.5
2018-03-19T09:34:06.539Z,1010.5
2018-03-19T09:35:09.316Z,1010.5
2018-03-19T09:36:12.105Z,1010.5
2018-03-19T09:37:14.533Z,1010.5
2018-03-19T09:38:16.966Z,1010.5
2018-03-19T09:39:19.404Z,1010.5
2018-03-19T09:40:21.838Z,1010.5
2018-03-19T09:41:24.280Z,1010.5
2018-03-19T09:42:26.732Z,1010.5
2018-03-19T09:43:29.157Z,1010.5
2018-03-19T09:44:31.601Z,1010.5
2018-03-19T09:45:34.049Z,1010.5
2018-03-19T09:46:36.485Z,1010.5
2018-03-19T09:47:38.930Z,1010.5
2018-03-19T09:48:41.660Z,1010.5
2018-03-19T09:49:44.101Z,1010.5
2018-03-19T09:50:46.529Z,1010.5
2018-03-19T09:51:49.270Z,1010.5
2018-03-19T09:52:51.725Z,1010.5
2018-03-19T09:53:54.164Z,1010.5
2018-03-19T09:54:56.896Z,1010.5
2018-03-19T09:55:59.339Z,1010.5
2018-03-19T09:57:01.786Z,1010.5
2018-03-19T09:58:04.233Z,1010.5
2018-03-19T09:59:06.674Z,1010.5
2018-03-19T10:00:09.104Z,1010.5
2018-03-19T10:01:11.830Z,1010.4
2018-03-19T10:02:14.277Z,1010.4
2018-03-19T10:03:16.718Z,1010.5
2018-03-19T10:04:19.467Z,1010.5
2018-03-19T10:05:21.898Z,1010.4
2018-03-19T10:06:24.340Z,1010.4
2018-03-19T10:07:26.810Z,1010.4
2018-03-19T10:08:29.373Z,1010.4
2018-03-19T10:09:31.866Z,1010.4
2018-03-19T10:10:34.703Z,1010.4
2018-03-19T10:11:37.413Z,1010.3
2018-03-19T10:12:40.158Z,1010.4
2018-03-19T10:13:42.614Z,1010.4
2018-03-19T10:14:45.723Z,1010.5
2018-03-19T10:15:49.448Z,1010.4
2018-03-19T10:16:52.070Z,1010.4
2018-03-19T10:17:54.707Z,1010.4
2018-03-19T10:20:29.968Z,1010.4
2018-03-19T10:21:32.434Z,1010.4
2018-03-19T10:22:34.856Z,1010.4
2018-03-19T10:23:37.304Z,1010.4
2018-03-19T10:24:39.746Z,1010.4
2018-03-19T10:25:42.189Z,1010.3
2018-03-19T10:26:44.620Z,1010.3
2018-03-19T10:27:47.073Z,1010.3
2018-03-19T10:28:49.508Z,1010.3
2018-03-19T10:29:52.264Z,1010.3
2018-03-19T10:30:54.709Z,1010.3
2018-03-19T10:31:57.150Z,1010.3
2018-03-19T10:32:59.598Z,1010.2
2018-03-19T10:34:02.045Z,1010.3
2018-03-19T10:35:04.480Z,1010.2
2018-03-19T10:36:06.927Z,1010.2
2018-03-19T10:37:09.369Z,1010.2
2018-03-19T10:38:12.100Z,1010.2
2018-03-19T10:39:14.829Z,1010.2
2018-03-19T10:40:17.564Z,1010.1
2018-03-19T10:41:19.992Z,1010.1
2018-03-19T10:42:22.445Z,1010.1
2018-03-19T10:43:24.873Z,1010.1
2018-03-19T10:44:27.662Z,1010.1
2018-03-19T10:45:30.042Z,1010.1
2018-03-19T10:46:32.484Z,1010.1
2018-03-19T10:47:35.233Z,1010.1
2018-03-19T10:48:37.683Z,1010.1
2018-03-19T10:49:40.126Z,1010.1
2018-03-19T10:50:43.421Z,1010
2018-03-19T10:51:46.162Z,1010
2018-03-19T10:52:48.635Z,1010
2018-03-19T10:53:51.051Z,1010
2018-03-19T10:54:53.497Z,1010
2018-03-19T10:55:55.935Z,1010
2018-03-19T10:56:58.372Z,1009.9
2018-03-19T10:58:00.819Z,1010
2018-03-19T10:59:03.253Z,1010
2018-03-19T11:00:05.700Z,1010
2018-03-19T11:01:08.143Z,1009.9
2018-03-19T11:02:10.888Z,1009.9
2018-03-19T11:03:13.324Z,1009.9
2018-03-19T11:04:15.762Z,1009.8
2018-03-19T11:05:18.202Z,1009.8
2018-03-19T11:06:20.940Z,1009.9
2018-03-19T11:07:23.732Z,1009.9
2018-03-19T11:08:26.188Z,1009.8
2018-03-19T11:09:28.625Z,1009.8
2018-03-19T11:10:31.353Z,1009.8
2018-03-19T11:11:34.082Z,1009.7
2018-03-19T11:12:36.528Z,1009.7
2018-03-19T11:13:38.963Z,1009.7
2018-03-19T11:14:41.415Z,1009.7
2018-03-19T11:15:43.843Z,1009.6
2018-03-19T11:16:46.299Z,1009.7
2018-03-19T11:17:49.036Z,1009.7
2018-03-19T11:18:51.481Z,1009.6
2018-03-19T11:19:54.213Z,1009.6
2018-03-19T11:20:56.649Z,1009.6
2018-03-19T11:21:59.378Z,1009.6
2018-03-19T11:23:01.850Z,1009.6
2018-03-19T11:24:04.273Z,1009.6
2018-03-19T11:25:07.013Z,1009.5
2018-03-19T11:26:09.733Z,1009.5
2018-03-19T11:27:12.191Z,1009.5
2018-03-19T11:28:14.919Z,1009.5
2018-03-19T11:29:17.362Z,1009.4
2018-03-19T11:30:20.092Z,1009.5
2018-03-19T11:31:22.818Z,1009.5
2018-03-19T11:32:25.581Z,1009.5
2018-03-19T11:33:28.028Z,1009.4
2018-03-19T11:34:30.468Z,1009.4
2018-03-19T11:35:32.915Z,1009.4
2018-03-19T11:36:35.651Z,1009.4
2018-03-19T11:37:38.676Z,1009.4
2018-03-19T11:38:41.110Z,1009.4
2018-03-19T11:39:43.855Z,1009.3
2018-03-19T11:40:46.279Z,1009.4
2018-03-19T11:41:48.773Z,1009.4
2018-03-19T11:42:51.523Z,1009.4
2018-03-19T11:43:53.968Z,1009.4
2018-03-19T11:44:56.417Z,1009.3
2018-03-19T11:45:59.438Z,1009.3
2018-03-19T11:47:01.910Z,1009.4
2018-03-19T11:48:04.340Z,1009.3
2018-03-19T11:49:07.054Z,1009.3
2018-03-19T11:50:09.503Z,1009.3
2018-03-19T11:51:11.974Z,1009.4
2018-03-19T11:52:14.674Z,1009.3
2018-03-19T11:53:17.121Z,1009.3
2018-03-19T11:54:19.568Z,1009.3
2018-03-19T11:55:22.009Z,1009.4
2018-03-19T11:56:24.736Z,1009.3
2018-03-19T11:57:27.482Z,1009.3
2018-03-19T11:58:30.489Z,1009.2
2018-03-19T11:59:32.944Z,1009.2
2018-03-19T12:00:35.667Z,1009.2
2018-03-19T12:01:38.109Z,1009.2
2018-03-19T12:02:40.844Z,1009.2
2018-03-19T12:03:43.287Z,1009.2
2018-03-19T12:04:46.029Z,1009.2
2018-03-19T12:05:48.479Z,1009.2
2018-03-19T12:06:50.905Z,1009.1
2018-03-19T12:07:53.347Z,1009.2
2018-03-19T12:08:55.789Z,1009.2
2018-03-19T12:09:58.228Z,1009.1
2018-03-19T12:11:00.964Z,1009.1
2018-03-19T12:12:03.407Z,1009.1
2018-03-19T12:13:05.852Z,1009.1
2018-03-19T12:14:08.588Z,1009.1
2018-03-19T12:15:11.025Z,1009
2018-03-19T12:16:13.766Z,1009
2018-03-19T12:17:16.208Z,1009
2018-03-19T12:18:18.658Z,1009
2018-03-19T12:19:21.105Z,1009
2018-03-19T12:20:23.563Z,1009
2018-03-19T12:21:26.010Z,1009
2018-03-19T12:22:28.754Z,1009
2018-03-19T12:23:31.187Z,1009
2018-03-19T12:24:33.644Z,1008.9
2018-03-19T12:25:36.086Z,1008.9
2018-03-19T12:26:39.098Z,1008.9
2018-03-19T12:27:41.547Z,1008.9
2018-03-19T12:28:43.991Z,1008.9
2018-03-19T12:29:46.434Z,1008.9
2018-03-19T12:30:48.877Z,1008.9
2018-03-19T12:31:51.611Z,1008.8
2018-03-19T12:32:54.053Z,1008.8
2018-03-19T12:33:56.494Z,1008.8
2018-03-19T12:34:58.942Z,1008.8
2018-03-19T12:36:01.675Z,1008.8
2018-03-19T12:37:04.118Z,1008.8
2018-03-19T12:38:06.565Z,1008.8
2018-03-19T12:39:09.014Z,1008.7
2018-03-19T12:40:11.750Z,1008.7
2018-03-19T12:41:14.481Z,1008.7
2018-03-19T12:42:16.933Z,1008.7
2018-03-19T12:43:19.377Z,1008.7
2018-03-19T12:44:21.821Z,1008.7
2018-03-19T12:45:24.562Z,1008.7
2018-03-19T12:46:26.997Z,1008.6
2018-03-19T12:47:29.732Z,1008.6
2018-03-19T12:48:32.174Z,1008.6
2018-03-19T12:49:34.610Z,1008.6
2018-03-19T12:50:37.058Z,1008.5
2018-03-19T12:51:39.504Z,1008.6
2018-03-19T12:52:42.522Z,1008.5
2018-03-19T12:53:45.246Z,1008.6
2018-03-19T12:54:47.685Z,1008.6
2018-03-19T12:55:50.129Z,1008.5
2018-03-19T12:56:52.568Z,1008.5
2018-03-19T12:57:55.006Z,1008.5
2018-03-19T12:58:57.769Z,1008.4
2018-03-19T13:00:00.217Z,1008.4
2018-03-19T13:01:02.665Z,1008.4
2018-03-19T13:02:05.433Z,1008.4
2018-03-19T13:03:07.877Z,1008.4
2018-03-19T13:04:10.322Z,1008.4
2018-03-19T13:05:12.769Z,1008.4
2018-03-19T13:06:15.804Z,1008.4
2018-03-19T13:07:18.254Z,1008.4
2018-03-19T13:08:20.692Z,1008.4
2018-03-19T13:09:23.417Z,1008.4